Jc Love — WDC3346 — position and weather

sailwx.info

Track history (hours):
 
Tides and Currents Weather Stations Pressure Air Temp Water Temp Dewpoint Dewpoint Depression Visibility Wind Speed Wind Dir Waves Ship Positions

Jc Love

Owner: WEEKS MARINE, INC, CRANFORD, NJ. More information available from US FCC via Universal Licensing System and Coast Guard Vessel Documentation Center.

Last reported at 2018-Jan-18 06:00 UTC. Time now 2018-Jan-18 06:16 UTC.
Position N 29°37' W 094°58'.

Length 20 m; draft 2.5 m.

Type: Tug. MMSI: 367006320.

Date/timePositionNaut miles runAvg speedWind from/ knotsBaromVisibWave heightAir tempDewpointWater temp
2018-Jan-18 06:00N 29°37' W 094°58'0 0.8
2018-Jan-18 05:31N 29°37' W 094°58'0 0.0
2018-Jan-18 05:00N 29°37' W 094°58'0 0.0
2018-Jan-18 04:30N 29°37' W 094°58'0 0.0
2018-Jan-18 04:00N 29°37' W 094°58'0 0.0
2018-Jan-18 03:29N 29°37' W 094°58'0 0.0
2018-Jan-18 03:01N 29°37' W 094°58'0 0.1
2018-Jan-18 02:30N 29°37' W 094°58'0 0.0
2018-Jan-18 02:00N 29°37' W 094°58'0 0.0
2018-Jan-18 01:31N 29°37' W 094°58'0 0.0
2018-Jan-18 01:00N 29°37' W 094°58'0 0.1
2018-Jan-18 00:01N 29°37' W 094°58'0 0.4
2018-Jan-17 23:57N 29°37' W 094°58'  
2018-Jan-12 15:00N 29°37' W 094°57'2 3.8
2018-Jan-12 14:30N 29°37' W 094°59'1 2.6
2018-Jan-12 14:00N 29°37' W 095°01'0 1.0
2018-Jan-12 13:30N 29°37' W 095°00'3 2.5
2018-Jan-12 12:28N 29°37' W 094°57'0 0.1
2018-Jan-12 11:59N 29°37' W 094°57'0 0.0
2018-Jan-12 11:29N 29°37' W 094°57'0 0.0
2018-Jan-12 11:00N 29°37' W 094°57'0 0.0
2018-Jan-12 10:30N 29°37' W 094°57'0 0.0
2018-Jan-12 09:57N 29°37' W 094°57'0 0.0
2018-Jan-12 09:30N 29°37' W 094°57'0 0.0
2018-Jan-12 09:00N 29°37' W 094°57'0 0.0
2018-Jan-12 08:30N 29°37' W 094°57'0 0.0
2018-Jan-12 08:00N 29°37' W 094°57'0 0.0
2018-Jan-12 07:30N 29°37' W 094°57'0 0.0
2018-Jan-12 06:54N 29°37' W 094°57'0 0.0
2018-Jan-12 06:26N 29°37' W 094°57'0 0.0
2018-Jan-12 06:00N 29°37' W 094°57'0 0.0
2018-Jan-12 05:30N 29°37' W 094°57'0 0.0
2018-Jan-12 05:00N 29°37' W 094°57'0 0.0
2018-Jan-12 04:29N 29°37' W 094°57'0 0.0
2018-Jan-12 04:00N 29°37' W 094°57'0 0.0
2018-Jan-12 03:30N 29°37' W 094°57'0 0.0
2018-Jan-12 02:59N 29°37' W 094°57'0 0.0
2018-Jan-12 02:30N 29°37' W 094°57'0 0.0
2018-Jan-12 02:00N 29°37' W 094°57'0 0.0
2018-Jan-12 01:30N 29°37' W 094°57'0 0.0
2018-Jan-12 01:00N 29°37' W 094°57'0 0.0
2018-Jan-12 00:30N 29°37' W 094°57'0 0.0
2018-Jan-12 00:00N 29°37' W 094°57'0 0.0
2018-Jan-11 23:28N 29°37' W 094°57'0 0.4
2018-Jan-11 23:00N 29°37' W 094°57'0 0.1
2018-Jan-11 22:30N 29°37' W 094°57'0 0.0
2018-Jan-11 22:00N 29°37' W 094°57'0 0.0
2018-Jan-11 21:30N 29°37' W 094°57'0 0.5
2018-Jan-11 21:00N 29°37' W 094°57'0 0.1
2018-Jan-11 20:30N 29°37' W 094°57'1 1.3
2018-Jan-11 20:00N 29°37' W 094°57'1 1.0
2018-Jan-11 19:30N 29°37' W 094°57'1 1.6
2018-Jan-11 19:00N 29°38' W 094°58'0 0.0
2018-Jan-11 18:28N 29°38' W 094°58'0 0.9
2018-Jan-11 18:00N 29°37' W 094°58'1 1.6
2018-Jan-11 17:27N 29°36' W 094°57'0 0.0
2018-Jan-11 17:00N 29°36' W 094°57'0 0.0
2018-Jan-11 16:27N 29°36' W 094°57'0 0.2
2018-Jan-11 16:00N 29°37' W 094°57'0 0.0
2018-Jan-11 15:30N 29°37' W 094°57'1 2.0
2018-Jan-11 15:00N 29°37' W 094°58'1 1.8
2018-Jan-11 14:30N 29°37' W 094°57'0 0.2
2018-Jan-11 14:00N 29°36' W 094°57'0 0.1
2018-Jan-11 13:30N 29°36' W 094°57'0 0.0
2018-Jan-11 13:00N 29°36' W 094°57'0 0.0
2018-Jan-11 12:30N 29°36' W 094°57'0 0.0
2018-Jan-11 12:00N 29°36' W 094°57'0 0.0
2018-Jan-11 11:30N 29°36' W 094°57'0 0.0
2018-Jan-11 11:00N 29°36' W 094°57'0 0.1
2018-Jan-11 10:16N 29°37' W 094°57'0 0.3
2018-Jan-11 10:00N 29°36' W 094°57'0 0.0
2018-Jan-11 09:30N 29°36' W 094°57'0 0.0
2018-Jan-11 09:00N 29°36' W 094°57'0 0.0
2018-Jan-11 08:30N 29°36' W 094°57'0 0.0
2018-Jan-11 08:00N 29°36' W 094°57'0 0.1
2018-Jan-11 07:19N 29°36' W 094°57'0 0.1
2018-Jan-11 07:00N 29°36' W 094°57'0 0.2
2018-Jan-11 06:30N 29°36' W 094°57'0 0.0
2018-Jan-11 06:00N 29°36' W 094°57'0 0.0
2018-Jan-11 05:30N 29°36' W 094°57'0 0.0
2018-Jan-11 05:00N 29°36' W 094°57'0 0.0
2018-Jan-11 04:30N 29°36' W 094°57'0 0.0
2018-Jan-11 04:00N 29°36' W 094°57'0 0.0
2018-Jan-11 03:30N 29°36' W 094°57'0 0.0
2018-Jan-11 02:59N 29°36' W 094°57'0 0.0
2018-Jan-11 02:30N 29°36' W 094°57'0 0.0
2018-Jan-11 02:00N 29°36' W 094°57'0 0.0
2018-Jan-11 01:30N 29°36' W 094°57'0 0.0
2018-Jan-11 01:00N 29°36' W 094°57'0 0.0
2018-Jan-11 00:30N 29°36' W 094°57'0 0.0
2018-Jan-11 00:00N 29°36' W 094°57'0 0.1
2018-Jan-10 23:28N 29°37' W 094°57'0 0.2
2018-Jan-10 23:00N 29°37' W 094°57'0 0.5
2018-Jan-10 22:30N 29°37' W 094°57'0 0.4
2018-Jan-10 22:00N 29°37' W 094°57'2 4.1
2018-Jan-10 21:30N 29°39' W 094°58'2 3.8
2018-Jan-10 21:00N 29°41' W 094°59'0 0.5
2018-Jan-10 20:30N 29°41' W 094°59'1 1.0
2018-Jan-10 20:00N 29°41' W 094°59'3 5.3
2018-Jan-10 19:27N 29°38' W 094°58'1 1.2
2018-Jan-10 19:00N 29°37' W 094°57'1 1.6
2018-Jan-10 18:30N 29°37' W 094°57'1 1.5
2018-Jan-10 18:00N 29°37' W 094°57'0 0.1
2018-Jan-10 17:30N 29°37' W 094°57'0 0.1
2018-Jan-10 17:00N 29°37' W 094°57'0 0.0
2018-Jan-10 16:30N 29°37' W 094°57'0 0.7
2018-Jan-10 16:00N 29°38' W 094°57'0 0.0
2018-Jan-10 15:30N 29°38' W 094°57'0 0.1
2018-Jan-10 15:00N 29°38' W 094°57'0 0.0
2018-Jan-10 14:29N 29°38' W 094°57'0 0.1
2018-Jan-10 13:56N 29°38' W 094°57'1 2.0
2018-Jan-10 13:30N 29°37' W 094°57'1 2.0
2018-Jan-10 13:00N 29°38' W 094°58'1 2.4
2018-Jan-10 12:30N 29°37' W 094°57'1 2.1
2018-Jan-10 11:59N 29°38' W 094°57'0 0.0
2018-Jan-10 11:30N 29°38' W 094°57'0 0.0
2018-Jan-10 11:00N 29°38' W 094°57'0 0.0
2018-Jan-10 10:30N 29°38' W 094°57'0 0.0
2018-Jan-10 09:59N 29°38' W 094°57'1 1.6
2018-Jan-10 09:29N 29°37' W 094°57'0 0.3
2018-Jan-10 09:00N 29°37' W 094°57'1 1.8
2018-Jan-10 08:29N 29°38' W 094°57'0 0.0
2018-Jan-10 08:00N 29°38' W 094°57'0 0.0
2018-Jan-10 07:30N 29°38' W 094°57'0 0.0
2018-Jan-10 06:58N 29°38' W 094°57'0 0.0
2018-Jan-10 06:30N 29°38' W 094°57'0 0.0
2018-Jan-10 05:59N 29°38' W 094°57'0 0.0
2018-Jan-10 05:27N 29°38' W 094°57'0 0.0
2018-Jan-10 04:57N 29°38' W 094°57'0 0.0
2018-Jan-10 04:29N 29°38' W 094°57'0 0.0
2018-Jan-10 04:00N 29°38' W 094°57'1 1.5
2018-Jan-10 03:30N 29°37' W 094°57'0 0.8
2018-Jan-10 03:00N 29°37' W 094°57'1 1.2
2018-Jan-10 02:29N 29°37' W 094°57'0 0.4
2018-Jan-10 02:00N 29°37' W 094°57'0 0.3
2018-Jan-10 01:30N 29°37' W 094°57'1 1.4
2018-Jan-10 01:00N 29°37' W 094°57'0 0.8
2018-Jan-10 00:30N 29°38' W 094°57'0 0.1
2018-Jan-10 00:00N 29°38' W 094°58'0 0.3
2018-Jan-09 23:30N 29°38' W 094°57'0 0.2
2018-Jan-09 23:00N 29°38' W 094°57'0 0.1
2018-Jan-09 22:30N 29°38' W 094°57'1 0.2
2018-Jan-09 19:37N 29°38' W 094°58'0 0.1
2018-Jan-09 19:27N 29°38' W 094°58'0 0.0
2018-Jan-09 18:59N 29°38' W 094°58'0 0.1
2018-Jan-09 18:24N 29°38' W 094°58'0 1.0
2018-Jan-09 18:00N 29°38' W 094°57'0 0.4
2018-Jan-09 17:24N 29°38' W 094°57'0 0.0
2018-Jan-09 16:59N 29°38' W 094°57'0 0.0
2018-Jan-09 16:29N 29°38' W 094°57'0 0.0
2018-Jan-09 15:58N 29°38' W 094°57'0 0.0
2018-Jan-09 15:29N 29°38' W 094°57'0 0.0
2018-Jan-09 14:59N 29°38' W 094°57'0 0.0
2018-Jan-09 14:29N 29°38' W 094°57'0 0.0
2018-Jan-09 13:58N 29°38' W 094°57'0 0.3
2018-Jan-09 13:30N 29°38' W 094°57'0 0.8
2018-Jan-09 12:58N 29°38' W 094°58'0 0.0
2018-Jan-09 12:30N 29°38' W 094°58'1 0.0
2018-Jan-08 18:54N 29°37' W 094°57'0 0.4
2018-Jan-08 18:30N 29°37' W 094°57'1 1.4
2018-Jan-08 18:00N 29°38' W 094°58'1 2.0
2018-Jan-08 17:29N 29°39' W 094°58'2 3.6
2018-Jan-08 17:00N 29°40' W 094°59'1 2.5
2018-Jan-08 16:27N 29°42' W 094°60'0 0.0
2018-Jan-08 15:55N 29°42' W 094°60'1 2.8
2018-Jan-08 15:29N 29°41' W 094°59'2 3.7
2018-Jan-08 15:00N 29°39' W 094°58'2 3.5
2018-Jan-08 14:30N 29°37' W 094°57'0 0.1
2018-Jan-08 14:00N 29°37' W 094°57'0 0.0
2018-Jan-08 13:30N 29°37' W 094°57'0 0.2
2018-Jan-08 13:00N 29°37' W 094°57'0 0.3
2018-Jan-08 12:30N 29°37' W 094°57'0 0.6
2018-Jan-08 11:59N 29°37' W 094°57'0 0.0
2018-Jan-08 11:30N 29°37' W 094°57'0 0.0
2018-Jan-08 10:58N 29°37' W 094°57'0 0.0
2018-Jan-08 10:29N 29°37' W 094°57'0 0.0
2018-Jan-08 10:00N 29°37' W 094°57'0 0.0
2018-Jan-08 09:30N 29°37' W 094°57'0 0.0
2018-Jan-08 09:00N 29°37' W 094°57'0 0.0
2018-Jan-08 08:30N 29°37' W 094°57'0 0.0
2018-Jan-08 08:00N 29°37' W 094°57'0 0.0
2018-Jan-08 07:29N 29°37' W 094°57'0 0.0
2018-Jan-08 06:59N 29°37' W 094°57'0 0.0
2018-Jan-08 06:30N 29°37' W 094°57'0 0.0
2018-Jan-08 06:00N 29°37' W 094°57'  
Track history (hours):
 
Tides and Currents Weather Stations Pressure Air Temp Water Temp Dewpoint Dewpoint Depression Visibility Wind Speed Wind Dir Waves Ship Positions

Jc Love

Owner: WEEKS MARINE, INC, CRANFORD, NJ. More information available from US FCC via Universal Licensing System and Coast Guard Vessel Documentation Center.

Last reported at 2018-Jan-18 06:00 UTC. Time now 2018-Jan-18 06:16 UTC.
Position N 29°37' W 094°58'.

Length 20 m; draft 2.5 m.

Type: Tug. MMSI: 367006320.

Date/timePositionNaut miles runAvg speedWind from/ knotsBaromVisibWave heightAir tempDewpointWater temp
2018-Jan-18 06:00N 29°37' W 094°58'0 0.8
2018-Jan-18 05:31N 29°37' W 094°58'0 0.0
2018-Jan-18 05:00N 29°37' W 094°58'0 0.0
2018-Jan-18 04:30N 29°37' W 094°58'0 0.0
2018-Jan-18 04:00N 29°37' W 094°58'0 0.0
2018-Jan-18 03:29N 29°37' W 094°58'0 0.0
2018-Jan-18 03:01N 29°37' W 094°58'0 0.1
2018-Jan-18 02:30N 29°37' W 094°58'0 0.0
2018-Jan-18 02:00N 29°37' W 094°58'0 0.0
2018-Jan-18 01:31N 29°37' W 094°58'0 0.0
2018-Jan-18 01:00N 29°37' W 094°58'0 0.1
2018-Jan-18 00:01N 29°37' W 094°58'0 0.4
2018-Jan-17 23:57N 29°37' W 094°58'  
2018-Jan-12 15:00N 29°37' W 094°57'2 3.8
2018-Jan-12 14:30N 29°37' W 094°59'1 2.6
2018-Jan-12 14:00N 29°37' W 095°01'0 1.0
2018-Jan-12 13:30N 29°37' W 095°00'3 2.5
2018-Jan-12 12:28N 29°37' W 094°57'0 0.1
2018-Jan-12 11:59N 29°37' W 094°57'0 0.0
2018-Jan-12 11:29N 29°37' W 094°57'0 0.0
2018-Jan-12 11:00N 29°37' W 094°57'0 0.0
2018-Jan-12 10:30N 29°37' W 094°57'0 0.0
2018-Jan-12 09:57N 29°37' W 094°57'0 0.0
2018-Jan-12 09:30N 29°37' W 094°57'0 0.0
2018-Jan-12 09:00N 29°37' W 094°57'0 0.0
2018-Jan-12 08:30N 29°37' W 094°57'0 0.0
2018-Jan-12 08:00N 29°37' W 094°57'0 0.0
2018-Jan-12 07:30N 29°37' W 094°57'0 0.0
2018-Jan-12 06:54N 29°37' W 094°57'0 0.0
2018-Jan-12 06:26N 29°37' W 094°57'0 0.0
2018-Jan-12 06:00N 29°37' W 094°57'0 0.0
2018-Jan-12 05:30N 29°37' W 094°57'0 0.0
2018-Jan-12 05:00N 29°37' W 094°57'0 0.0
2018-Jan-12 04:29N 29°37' W 094°57'0 0.0
2018-Jan-12 04:00N 29°37' W 094°57'0 0.0
2018-Jan-12 03:30N 29°37' W 094°57'0 0.0
2018-Jan-12 02:59N 29°37' W 094°57'0 0.0
2018-Jan-12 02:30N 29°37' W 094°57'0 0.0
2018-Jan-12 02:00N 29°37' W 094°57'0 0.0
2018-Jan-12 01:30N 29°37' W 094°57'0 0.0
2018-Jan-12 01:00N 29°37' W 094°57'0 0.0
2018-Jan-12 00:30N 29°37' W 094°57'0 0.0
2018-Jan-12 00:00N 29°37' W 094°57'0 0.0
2018-Jan-11 23:28N 29°37' W 094°57'0 0.4
2018-Jan-11 23:00N 29°37' W 094°57'0 0.1
2018-Jan-11 22:30N 29°37' W 094°57'0 0.0
2018-Jan-11 22:00N 29°37' W 094°57'0 0.0
2018-Jan-11 21:30N 29°37' W 094°57'0 0.5
2018-Jan-11 21:00N 29°37' W 094°57'0 0.1
2018-Jan-11 20:30N 29°37' W 094°57'1 1.3
2018-Jan-11 20:00N 29°37' W 094°57'1 1.0
2018-Jan-11 19:30N 29°37' W 094°57'1 1.6
2018-Jan-11 19:00N 29°38' W 094°58'0 0.0
2018-Jan-11 18:28N 29°38' W 094°58'0 0.9
2018-Jan-11 18:00N 29°37' W 094°58'1 1.6
2018-Jan-11 17:27N 29°36' W 094°57'0 0.0
2018-Jan-11 17:00N 29°36' W 094°57'0 0.0
2018-Jan-11 16:27N 29°36' W 094°57'0 0.2
2018-Jan-11 16:00N 29°37' W 094°57'0 0.0
2018-Jan-11 15:30N 29°37' W 094°57'1 2.0
2018-Jan-11 15:00N 29°37' W 094°58'1 1.8
2018-Jan-11 14:30N 29°37' W 094°57'0 0.2
2018-Jan-11 14:00N 29°36' W 094°57'0 0.1
2018-Jan-11 13:30N 29°36' W 094°57'0 0.0
2018-Jan-11 13:00N 29°36' W 094°57'0 0.0
2018-Jan-11 12:30N 29°36' W 094°57'0 0.0
2018-Jan-11 12:00N 29°36' W 094°57'0 0.0
2018-Jan-11 11:30N 29°36' W 094°57'0 0.0
2018-Jan-11 11:00N 29°36' W 094°57'0 0.1
2018-Jan-11 10:16N 29°37' W 094°57'0 0.3
2018-Jan-11 10:00N 29°36' W 094°57'0 0.0
2018-Jan-11 09:30N 29°36' W 094°57'0 0.0
2018-Jan-11 09:00N 29°36' W 094°57'0 0.0
2018-Jan-11 08:30N 29°36' W 094°57'0 0.0
2018-Jan-11 08:00N 29°36' W 094°57'0 0.1
2018-Jan-11 07:19N 29°36' W 094°57'0 0.1
2018-Jan-11 07:00N 29°36' W 094°57'0 0.2
2018-Jan-11 06:30N 29°36' W 094°57'0 0.0
2018-Jan-11 06:00N 29°36' W 094°57'0 0.0
2018-Jan-11 05:30N 29°36' W 094°57'0 0.0
2018-Jan-11 05:00N 29°36' W 094°57'0 0.0
2018-Jan-11 04:30N 29°36' W 094°57'0 0.0
2018-Jan-11 04:00N 29°36' W 094°57'0 0.0
2018-Jan-11 03:30N 29°36' W 094°57'0 0.0
2018-Jan-11 02:59N 29°36' W 094°57'0 0.0
2018-Jan-11 02:30N 29°36' W 094°57'0 0.0
2018-Jan-11 02:00N 29°36' W 094°57'0 0.0
2018-Jan-11 01:30N 29°36' W 094°57'0 0.0
2018-Jan-11 01:00N 29°36' W 094°57'0 0.0
2018-Jan-11 00:30N 29°36' W 094°57'0 0.0
2018-Jan-11 00:00N 29°36' W 094°57'0 0.1
2018-Jan-10 23:28N 29°37' W 094°57'0 0.2
2018-Jan-10 23:00N 29°37' W 094°57'0 0.5
2018-Jan-10 22:30N 29°37' W 094°57'0 0.4
2018-Jan-10 22:00N 29°37' W 094°57'2 4.1
2018-Jan-10 21:30N 29°39' W 094°58'2 3.8
2018-Jan-10 21:00N 29°41' W 094°59'0 0.5
2018-Jan-10 20:30N 29°41' W 094°59'1 1.0
2018-Jan-10 20:00N 29°41' W 094°59'3 5.3
2018-Jan-10 19:27N 29°38' W 094°58'1 1.2
2018-Jan-10 19:00N 29°37' W 094°57'1 1.6
2018-Jan-10 18:30N 29°37' W 094°57'1 1.5
2018-Jan-10 18:00N 29°37' W 094°57'0 0.1
2018-Jan-10 17:30N 29°37' W 094°57'0 0.1
2018-Jan-10 17:00N 29°37' W 094°57'0 0.0
2018-Jan-10 16:30N 29°37' W 094°57'0 0.7
2018-Jan-10 16:00N 29°38' W 094°57'0 0.0
2018-Jan-10 15:30N 29°38' W 094°57'0 0.1
2018-Jan-10 15:00N 29°38' W 094°57'0 0.0
2018-Jan-10 14:29N 29°38' W 094°57'0 0.1
2018-Jan-10 13:56N 29°38' W 094°57'1 2.0
2018-Jan-10 13:30N 29°37' W 094°57'1 2.0
2018-Jan-10 13:00N 29°38' W 094°58'1 2.4
2018-Jan-10 12:30N 29°37' W 094°57'1 2.1
2018-Jan-10 11:59N 29°38' W 094°57'0 0.0
2018-Jan-10 11:30N 29°38' W 094°57'0 0.0
2018-Jan-10 11:00N 29°38' W 094°57'0 0.0
2018-Jan-10 10:30N 29°38' W 094°57'0 0.0
2018-Jan-10 09:59N 29°38' W 094°57'1 1.6
2018-Jan-10 09:29N 29°37' W 094°57'0 0.3
2018-Jan-10 09:00N 29°37' W 094°57'1 1.8
2018-Jan-10 08:29N 29°38' W 094°57'0 0.0
2018-Jan-10 08:00N 29°38' W 094°57'0 0.0
2018-Jan-10 07:30N 29°38' W 094°57'0 0.0
2018-Jan-10 06:58N 29°38' W 094°57'0 0.0
2018-Jan-10 06:30N 29°38' W 094°57'0 0.0
2018-Jan-10 05:59N 29°38' W 094°57'0 0.0
2018-Jan-10 05:27N 29°38' W 094°57'0 0.0
2018-Jan-10 04:57N 29°38' W 094°57'0 0.0
2018-Jan-10 04:29N 29°38' W 094°57'0 0.0
2018-Jan-10 04:00N 29°38' W 094°57'1 1.5
2018-Jan-10 03:30N 29°37' W 094°57'0 0.8
2018-Jan-10 03:00N 29°37' W 094°57'1 1.2
2018-Jan-10 02:29N 29°37' W 094°57'0 0.4
2018-Jan-10 02:00N 29°37' W 094°57'0 0.3
2018-Jan-10 01:30N 29°37' W 094°57'1 1.4
2018-Jan-10 01:00N 29°37' W 094°57'0 0.8
2018-Jan-10 00:30N 29°38' W 094°57'0 0.1
2018-Jan-10 00:00N 29°38' W 094°58'0 0.3
2018-Jan-09 23:30N 29°38' W 094°57'0 0.2
2018-Jan-09 23:00N 29°38' W 094°57'0 0.1
2018-Jan-09 22:30N 29°38' W 094°57'1 0.2
2018-Jan-09 19:37N 29°38' W 094°58'0 0.1
2018-Jan-09 19:27N 29°38' W 094°58'0 0.0
2018-Jan-09 18:59N 29°38' W 094°58'0 0.1
2018-Jan-09 18:24N 29°38' W 094°58'0 1.0
2018-Jan-09 18:00N 29°38' W 094°57'0 0.4
2018-Jan-09 17:24N 29°38' W 094°57'0 0.0
2018-Jan-09 16:59N 29°38' W 094°57'0 0.0
2018-Jan-09 16:29N 29°38' W 094°57'0 0.0
2018-Jan-09 15:58N 29°38' W 094°57'0 0.0
2018-Jan-09 15:29N 29°38' W 094°57'0 0.0
2018-Jan-09 14:59N 29°38' W 094°57'0 0.0
2018-Jan-09 14:29N 29°38' W 094°57'0 0.0
2018-Jan-09 13:58N 29°38' W 094°57'0 0.3
2018-Jan-09 13:30N 29°38' W 094°57'0 0.8
2018-Jan-09 12:58N 29°38' W 094°58'0 0.0
2018-Jan-09 12:30N 29°38' W 094°58'1 0.0
2018-Jan-08 18:54N 29°37' W 094°57'0 0.4
2018-Jan-08 18:30N 29°37' W 094°57'1 1.4
2018-Jan-08 18:00N 29°38' W 094°58'1 2.0
2018-Jan-08 17:29N 29°39' W 094°58'2 3.6
2018-Jan-08 17:00N 29°40' W 094°59'1 2.5
2018-Jan-08 16:27N 29°42' W 094°60'0 0.0
2018-Jan-08 15:55N 29°42' W 094°60'1 2.8
2018-Jan-08 15:29N 29°41' W 094°59'2 3.7
2018-Jan-08 15:00N 29°39' W 094°58'2 3.5
2018-Jan-08 14:30N 29°37' W 094°57'0 0.1
2018-Jan-08 14:00N 29°37' W 094°57'0 0.0
2018-Jan-08 13:30N 29°37' W 094°57'0 0.2
2018-Jan-08 13:00N 29°37' W 094°57'0 0.3
2018-Jan-08 12:30N 29°37' W 094°57'0 0.6
2018-Jan-08 11:59N 29°37' W 094°57'0 0.0
2018-Jan-08 11:30N 29°37' W 094°57'0 0.0
2018-Jan-08 10:58N 29°37' W 094°57'0 0.0
2018-Jan-08 10:29N 29°37' W 094°57'0 0.0
2018-Jan-08 10:00N 29°37' W 094°57'0 0.0
2018-Jan-08 09:30N 29°37' W 094°57'0 0.0
2018-Jan-08 09:00N 29°37' W 094°57'0 0.0
2018-Jan-08 08:30N 29°37' W 094°57'0 0.0
2018-Jan-08 08:00N 29°37' W 094°57'0 0.0
2018-Jan-08 07:29N 29°37' W 094°57'0 0.0
2018-Jan-08 06:59N 29°37' W 094°57'0 0.0
2018-Jan-08 06:30N 29°37' W 094°57'0 0.0
2018-Jan-08 06:00N 29°37' W 094°57'  

Dump ship's entire track history